Estación Meteorológica Peña el Pijo (Robertgarden) [ 01/30/23 14:59:42 CET ]

Fecha Hora Presion(HPa) Temp (°C) Humedad % Rocio (°C) Viento ( m/s) Direccion Lluvia 1Hora(mm) Lluvia 24H(mm) LLuvia Total(mm)
2012-Dec-08 01:01:11 1008.200 7.2 82 4.3         178.19
2012-Dec-08 02:10:09 1008.100 7.2 82 4.3         178.19
2012-Dec-08 03:03:44 1008.300 6.8 83 4.1         178.19
2012-Dec-08 04:01:43 1008.300 6.5 85 4.2         178.19
2012-Dec-08 05:06:16 1008.300 6.6 83 3.9         178.19
2012-Dec-08 06:01:16 1008.700 6.4 82 3.5         178.19
2012-Dec-08 07:01:14 1009.300 5.8 81 2.8         178.19
2012-Dec-08 08:01:14 1010.000 4.3 83 1.6         178.19
2012-Dec-08 09:01:18 1010.100 2.9 86 0.8         178.19
2012-Dec-08 10:01:14 1010.600 7.9 76 3.9         178.19
2012-Dec-08 11:01:11 1011.200 10.1 65 3.8         178.19
2012-Dec-08 12:01:14 1011.300 11.6 57 3.3         178.19
2012-Dec-08 13:01:14 1010.700 12.5 51 2.6         178.19
2012-Dec-08 14:01:12 1010.500 11.9 39 -1.7         178.19
2012-Dec-08 15:01:11 1010.300 12.1 31 -4.5 1.3 NW     178.19
2012-Dec-08 16:01:13 1009.900 12.6 34 -3.0         178.19
2012-Dec-08 17:01:13 1010.700 8.9 37 -5.1         178.19
2012-Dec-08 18:01:15 1011.500 6.0 50 -3.6         178.19
2012-Dec-08 19:01:14 1012.600 2.5 62 -4.0         178.19
2012-Dec-08 20:01:12 1013.400 0.9 69 -4.2         178.19
2012-Dec-08 21:01:14 1013.800 -0.4 73 -4.7         178.19
2012-Dec-08 22:01:18 1014.200 -1.1 77 -4.6         178.19
2012-Dec-08 23:01:13 1013.900 -1.4 80 -4.4         178.19

Temperatura Máxima:12°    Temperatura Mínima:-1°
Presión Máxima:1014.200 Hpa    Presión Mínima:1008.100 Hpa


Volver